Main page
METAR-TAF:

METAR-TAF

Airports :

Berlin Regional Airport

Berlin, New Hampshire, United States

latitude: 44-34-34N, longitude: 071-10-43W, elevation: 1158 ft

Current weather observation

The report was made 29 minutes ago, at 06:52 UTC
Calm wind
Temperature 18°F
Humidity 79%
Pressure 29.97 in. Hg
Visibility: 7 miles
Clear sky

METAR: KBML 240652Z AUTO 00000KT 7SM CLR M08/M11 A2997 RMK AO2 SLP164 I1000 T10831106

Time: 02:21 (07:21 UTC)


TAF: missing

Weather observations and forecasts of more than 4000 airports (METAR and TAF reports).

The available stations are represented by yellow and red dots on the map.

Hover mouse over dot to see the name of the station.

Then click to see weather observations and forecasts.

To change the map : click on the green buttons with a black cross to zoom in, on the green button with a dash to zoom out, or on the green arrows for adjacent maps.


METAR-TAF: